createdAt,value
2022-08-26T00:02:27.964Z,29.42
2022-08-26T00:07:29.995Z,27.58
2022-08-26T00:12:37.554Z,27.02
2022-08-26T00:17:40.466Z,25.77
2022-08-26T00:22:42.727Z,27.10
2022-08-26T00:27:44.724Z,27.90
2022-08-26T00:32:46.515Z,31.08
2022-08-26T00:37:47.986Z,30.75
2022-08-26T00:42:49.977Z,29.90
2022-08-26T00:48:00.999Z,33.38
2022-08-26T00:53:21.424Z,30.80
2022-08-26T00:58:29.399Z,30.70
2022-08-26T01:03:33.426Z,29.65
2022-08-26T01:08:35.196Z,31.17
2022-08-26T01:13:38.230Z,28.60
2022-08-26T01:18:41.168Z,29.60
2022-08-26T01:23:50.722Z,28.00
2022-08-26T01:28:56.537Z,27.33
2022-08-26T01:34:10.694Z,24.83
2022-08-26T01:39:13.068Z,23.55
2022-08-26T01:44:19.675Z,26.27
2022-08-26T01:49:23.222Z,22.40
2022-08-26T01:54:27.727Z,21.95
2022-08-26T01:59:30.153Z,20.92
2022-08-26T02:04:39.407Z,19.67
2022-08-26T02:09:42.131Z,18.77
2022-08-26T02:14:50.061Z,18.33
2022-08-26T02:19:53.277Z,17.02
2022-08-26T02:25:00.202Z,17.90
2022-08-26T02:30:17.172Z,16.52
2022-08-26T02:35:22.073Z,16.38
2022-08-26T02:40:33.688Z,15.82
2022-08-26T02:45:37.273Z,14.95
2022-08-26T02:50:39.982Z,13.93
2022-08-26T02:55:42.178Z,12.35
2022-08-26T03:00:52.780Z,13.27
2022-08-26T03:05:55.130Z,13.55
2022-08-26T03:10:56.680Z,12.00
2022-08-26T03:16:01.344Z,11.90
2022-08-26T03:21:07.899Z,11.30
2022-08-26T03:26:12.100Z,10.90
2022-08-26T03:31:13.925Z,11.00
2022-08-26T03:36:15.836Z,10.48
2022-08-26T03:41:17.969Z,8.80
2022-08-26T03:46:20.497Z,10.05
2022-08-26T03:51:22.638Z,9.80
2022-08-26T03:56:27.076Z,10.23
2022-08-26T04:01:29.019Z,9.10
2022-08-26T04:06:34.651Z,8.15
2022-08-26T04:11:37.812Z,7.80
2022-08-26T04:16:42.274Z,6.97
2022-08-26T04:21:46.924Z,7.03
2022-08-26T04:26:50.281Z,6.70
2022-08-26T04:31:55.567Z,5.88
2022-08-26T04:36:58.335Z,5.88
2022-08-26T04:42:00.276Z,5.53
2022-08-26T04:47:04.615Z,6.07
2022-08-26T04:52:06.197Z,4.60
2022-08-26T04:57:09.294Z,4.72
2022-08-26T05:02:11.372Z,5.03
2022-08-26T05:07:12.881Z,4.07
2022-08-26T05:12:14.393Z,4.70
2022-08-26T05:17:17.964Z,4.45
2022-08-26T05:22:20.145Z,4.63
2022-08-26T05:27:22.039Z,4.53
2022-08-26T05:32:23.722Z,4.05
2022-08-26T05:37:25.315Z,3.63
2022-08-26T05:42:27.025Z,3.85
2022-08-26T05:47:29.912Z,4.20
2022-08-26T05:52:33.218Z,3.50
2022-08-26T05:57:39.946Z,3.58
2022-08-26T06:02:43.738Z,3.40
2022-08-26T06:08:08.772Z,3.70
2022-08-26T06:13:12.644Z,3.65
2022-08-26T06:18:16.637Z,3.63
2022-08-26T06:23:37.008Z,3.80
2022-08-26T06:28:45.529Z,3.88
2022-08-26T06:33:47.442Z,4.05
2022-08-26T06:38:50.499Z,3.53
2022-08-26T06:43:52.331Z,3.25
2022-08-26T06:48:54.600Z,3.53
2022-08-26T06:53:59.528Z,3.55
2022-08-26T06:59:01.202Z,3.50
2022-08-26T07:04:04.845Z,3.17
2022-08-26T07:09:11.889Z,3.08
2022-08-26T07:14:13.873Z,2.85
2022-08-26T07:19:17.371Z,2.95
2022-08-26T07:24:29.329Z,2.83
2022-08-26T07:29:30.921Z,2.85
2022-08-26T07:34:33.343Z,2.67
2022-08-26T07:39:34.989Z,3.47
2022-08-26T07:44:37.837Z,2.88
2022-08-26T07:49:39.465Z,2.42
2022-08-26T07:54:41.169Z,2.53
2022-08-26T07:59:42.707Z,2.85
2022-08-26T08:04:45.332Z,2.50
2022-08-26T08:09:49.569Z,2.63
2022-08-26T08:14:51.341Z,2.83
2022-08-26T08:19:52.941Z,2.45
2022-08-26T08:24:54.739Z,2.50
2022-08-26T08:29:56.944Z,2.35
2022-08-26T08:34:59.326Z,2.38
2022-08-26T08:40:00.897Z,2.22
2022-08-26T08:45:09.731Z,1.88
2022-08-26T08:50:20.519Z,2.17
2022-08-26T08:55:26.705Z,2.08
2022-08-26T09:00:39.689Z,2.20
2022-08-26T09:05:48.791Z,1.98
2022-08-26T09:10:57.082Z,1.83
2022-08-26T09:16:10.105Z,1.70
2022-08-26T09:21:14.213Z,2.13
2022-08-26T09:26:20.077Z,2.00
2022-08-26T09:31:25.089Z,1.92
2022-08-26T09:36:43.745Z,1.90
2022-08-26T09:42:01.094Z,1.60
2022-08-26T09:47:06.924Z,1.90
2022-08-26T09:52:20.158Z,1.98
2022-08-26T09:57:27.806Z,1.98
2022-08-26T10:02:33.441Z,2.10
2022-08-26T10:07:50.502Z,1.60
2022-08-26T10:13:03.106Z,1.80
2022-08-26T10:18:15.715Z,2.05
2022-08-26T10:23:23.371Z,1.75
2022-08-26T10:28:49.775Z,1.80
2022-08-26T10:33:56.660Z,1.98
2022-08-26T10:39:05.223Z,1.70
2022-08-26T10:44:11.313Z,1.80
2022-08-26T10:49:15.605Z,1.80
2022-08-26T10:54:44.009Z,1.58
2022-08-26T10:59:52.704Z,1.65
2022-08-26T11:05:01.889Z,1.70
2022-08-26T11:15:13.643Z,2.20
2022-08-26T11:20:35.375Z,2.15
2022-08-26T11:25:57.184Z,1.60
2022-08-26T11:30:58.958Z,2.00
2022-08-26T11:36:00.609Z,1.52
2022-08-26T11:41:20.716Z,1.77
2022-08-26T11:46:28.242Z,1.90
2022-08-26T11:51:31.453Z,1.65
2022-08-26T11:56:35.970Z,2.05
2022-08-26T12:01:44.469Z,1.88
2022-08-26T12:06:49.806Z,1.70
2022-08-26T12:11:54.113Z,1.60
2022-08-26T12:17:10.249Z,1.90
2022-08-26T12:22:23.205Z,1.70
2022-08-26T12:27:29.479Z,1.40
2022-08-26T12:32:31.961Z,1.70
2022-08-26T12:37:37.433Z,2.15
2022-08-26T12:42:42.381Z,2.10
2022-08-26T12:47:45.985Z,1.77
2022-08-26T12:52:53.934Z,1.80
2022-08-26T12:58:32.737Z,2.03
2022-08-26T13:03:34.149Z,2.33
2022-08-26T13:08:39.266Z,1.95
2022-08-26T13:13:41.059Z,1.77
2022-08-26T13:18:42.585Z,1.73
2022-08-26T13:23:44.625Z,1.55
2022-08-26T13:28:47.709Z,1.95
2022-08-26T13:34:03.913Z,1.77
2022-08-26T13:39:06.678Z,1.70
2022-08-26T13:44:08.210Z,1.60
2022-08-26T13:49:10.528Z,1.80
2022-08-26T13:54:12.021Z,1.83
2022-08-26T13:59:13.543Z,2.33
2022-08-26T14:04:15.143Z,1.60
2022-08-26T14:09:16.656Z,2.80
2022-08-26T14:14:18.184Z,1.30
2022-08-26T14:19:19.785Z,1.80
2022-08-26T14:24:26.208Z,1.83
2022-08-26T14:29:28.213Z,1.48
2022-08-26T14:34:29.744Z,1.88
2022-08-26T14:39:31.222Z,1.45
2022-08-26T14:44:33.581Z,2.15
2022-08-26T14:49:35.156Z,1.90
2022-08-26T14:54:37.706Z,1.80
2022-08-26T14:59:49.635Z,1.52
2022-08-26T15:04:51.827Z,1.50
2022-08-26T15:09:53.625Z,1.80
2022-08-26T15:14:55.117Z,1.77
2022-08-26T15:19:56.846Z,1.27
2022-08-26T15:24:58.425Z,1.70
2022-08-26T15:30:03.112Z,2.35
2022-08-26T15:35:08.882Z,1.50
2022-08-26T15:40:11.130Z,1.42
2022-08-26T15:45:12.762Z,1.42
2022-08-26T15:50:28.884Z,1.08
2022-08-26T15:55:30.395Z,1.38
2022-08-26T16:00:31.912Z,1.15
2022-08-26T16:05:37.696Z,1.40
2022-08-26T16:10:46.500Z,1.40
2022-08-26T16:15:50.833Z,1.10
2022-08-26T16:20:57.411Z,1.33
2022-08-26T16:26:18.493Z,1.17
2022-08-26T16:31:21.498Z,1.05
2022-08-26T16:36:23.096Z,1.20
2022-08-26T16:41:27.105Z,1.50
2022-08-26T16:46:29.033Z,1.20
2022-08-26T16:51:32.383Z,1.40
2022-08-26T16:56:39.489Z,1.23
2022-08-26T17:01:41.033Z,1.05
2022-08-26T17:06:42.585Z,1.35
2022-08-26T17:11:44.576Z,1.63
2022-08-26T17:16:46.720Z,1.10
2022-08-26T17:21:48.310Z,1.10
2022-08-26T17:26:50.719Z,0.80
2022-08-26T17:31:57.339Z,1.40
2022-08-26T17:36:59.322Z,1.50
2022-08-26T17:42:00.806Z,0.93
2022-08-26T17:47:02.367Z,1.00
2022-08-26T17:52:05.854Z,1.20
2022-08-26T17:57:10.706Z,1.05
2022-08-26T18:02:12.390Z,0.80
2022-08-26T18:07:14.445Z,0.80
2022-08-26T18:12:15.972Z,1.00
2022-08-26T18:17:19.419Z,1.20
2022-08-26T18:22:23.088Z,0.77
2022-08-26T18:27:24.589Z,0.90
2022-08-26T18:32:26.087Z,1.10
2022-08-26T18:37:30.922Z,0.73
2022-08-26T18:42:34.010Z,1.10
2022-08-26T18:47:35.949Z,0.80
2022-08-26T18:52:37.523Z,0.88
2022-08-26T18:57:39.900Z,1.27
2022-08-26T19:02:41.603Z,0.98
2022-08-26T19:07:48.458Z,1.02
2022-08-26T19:12:51.914Z,0.80
2022-08-26T19:17:53.884Z,0.95
2022-08-26T19:22:57.428Z,0.85
2022-08-26T19:28:01.199Z,0.75
2022-08-26T19:33:05.175Z,1.02
2022-08-26T19:38:07.238Z,1.02
2022-08-26T19:43:09.912Z,1.17
2022-08-26T19:48:13.550Z,1.00
2022-08-26T19:53:15.380Z,0.95
2022-08-26T19:58:16.897Z,1.17
2022-08-26T20:03:18.508Z,1.00
2022-08-26T20:08:21.838Z,0.88
2022-08-26T20:13:24.118Z,0.93
2022-08-26T20:18:44.328Z,1.00
2022-08-26T20:23:45.846Z,1.10
2022-08-26T20:28:47.378Z,0.88
2022-08-26T20:33:52.753Z,0.80
2022-08-26T20:38:55.321Z,1.10
2022-08-26T20:43:56.921Z,0.88
2022-08-26T20:48:58.419Z,0.80
2022-08-26T20:54:01.355Z,0.93
2022-08-26T20:59:05.576Z,0.80
2022-08-26T21:04:11.395Z,1.13
2022-08-26T21:09:18.689Z,0.75
2022-08-26T21:14:22.737Z,0.77
2022-08-26T21:19:27.294Z,1.00
2022-08-26T21:24:28.783Z,1.10
2022-08-26T21:29:30.301Z,1.13
2022-08-26T21:34:31.929Z,0.90
2022-08-26T21:39:33.531Z,1.00
2022-08-26T21:44:35.057Z,1.00
2022-08-26T21:49:36.608Z,1.05
2022-08-26T21:54:38.382Z,1.10
2022-08-26T21:59:40.685Z,1.08
2022-08-26T22:04:45.629Z,0.90
2022-08-26T22:09:49.677Z,0.75
2022-08-26T22:14:51.298Z,0.80
2022-08-26T22:19:53.070Z,0.93
2022-08-26T22:24:54.805Z,1.10
2022-08-26T22:29:56.357Z,1.08
2022-08-26T22:34:57.857Z,0.85
2022-08-26T22:39:59.419Z,1.08
2022-08-26T22:45:08.381Z,1.40
2022-08-26T22:50:10.071Z,1.35
2022-08-26T22:55:11.722Z,1.00
2022-08-26T23:00:14.121Z,0.80
2022-08-26T23:05:16.303Z,1.20
2022-08-26T23:10:17.937Z,1.02
2022-08-26T23:15:20.800Z,1.27
2022-08-26T23:20:22.456Z,1.17
2022-08-26T23:25:25.215Z,1.10
2022-08-26T23:30:29.606Z,1.10
2022-08-26T23:35:31.110Z,1.52
2022-08-26T23:40:34.917Z,1.30
2022-08-26T23:45:36.897Z,1.10
2022-08-26T23:50:57.065Z,1.25
2022-08-26T23:55:58.596Z,1.08
